createdAt,value
2023-02-14T00:01:24.440Z,100554.94
2023-02-14T00:03:52.027Z,100553.09
2023-02-14T00:06:19.396Z,100546.16
2023-02-14T00:08:46.785Z,100546.16
2023-02-14T00:11:14.249Z,100545.13
2023-02-14T00:14:01.892Z,100538.16
2023-02-14T00:16:29.310Z,100534.66
2023-02-14T00:19:03.280Z,100547.41
2023-02-14T00:21:36.857Z,100538.72
2023-02-14T00:24:17.447Z,100543.06
2023-02-14T00:26:45.426Z,100549.88
2023-02-14T00:29:17.637Z,100543.69
2023-02-14T00:31:45.851Z,100546.84
2023-02-14T00:34:16.668Z,100553.53
2023-02-14T00:36:45.086Z,100555.19
2023-02-14T00:39:14.685Z,100555.38
2023-02-14T00:41:43.578Z,100544.13
2023-02-14T00:44:13.180Z,100549.28
2023-02-14T00:46:41.628Z,100547.53
2023-02-14T00:49:09.120Z,100553.53
2023-02-14T00:51:39.538Z,100553.44
2023-02-14T00:54:06.986Z,100556.69
2023-02-14T00:56:34.384Z,100550.59
2023-02-14T00:59:02.145Z,100554.00
2023-02-14T01:01:29.785Z,100545.16
2023-02-14T01:03:58.916Z,100537.31
2023-02-14T01:06:26.425Z,100532.13
2023-02-14T01:08:53.876Z,100531.97
2023-02-14T01:11:24.082Z,100539.53
2023-02-14T01:13:57.189Z,100529.19
2023-02-14T01:16:28.288Z,100519.88
2023-02-14T01:18:56.422Z,100531.59
2023-02-14T01:21:30.333Z,100523.03
2023-02-14T01:24:03.390Z,100527.38
2023-02-14T01:26:31.395Z,100518.78
2023-02-14T01:29:02.686Z,100517.66
2023-02-14T01:31:33.263Z,100513.16
2023-02-14T01:34:02.229Z,100517.41
2023-02-14T01:36:35.431Z,100513.72
2023-02-14T01:39:10.801Z,100499.97
2023-02-14T01:41:41.476Z,100496.53
2023-02-14T01:44:14.954Z,100486.19
2023-02-14T01:46:45.116Z,100479.19
2023-02-14T01:49:21.892Z,100478.25
2023-02-14T01:52:19.461Z,100467.16
2023-02-14T01:54:58.057Z,100466.50
2023-02-14T01:57:33.435Z,100462.16
2023-02-14T02:00:22.442Z,100454.41
2023-02-14T02:02:50.005Z,100446.94
2023-02-14T02:05:23.713Z,100453.97
2023-02-14T02:07:55.281Z,100447.13
2023-02-14T02:10:22.736Z,100447.03
2023-02-14T02:12:53.642Z,100458.03
2023-02-14T02:15:26.708Z,100461.44
2023-02-14T02:18:18.403Z,100469.31
2023-02-14T02:21:04.548Z,100463.81
2023-02-14T02:23:59.811Z,100456.16
2023-02-14T02:26:50.292Z,100449.50
2023-02-14T02:29:51.786Z,100442.06
2023-02-14T02:32:58.560Z,100444.66
2023-02-14T02:36:02.970Z,100434.56
2023-02-14T02:38:48.340Z,100449.88
2023-02-14T02:41:52.929Z,100455.88
2023-02-14T02:44:51.401Z,100456.75
2023-02-14T02:47:54.364Z,100447.22
2023-02-14T02:51:06.978Z,100449.81
2023-02-14T02:54:03.289Z,100451.56
2023-02-14T02:56:48.708Z,100451.47
2023-02-14T02:59:38.348Z,100458.31
2023-02-14T03:02:22.967Z,100448.69
2023-02-14T03:05:02.129Z,100448.88
2023-02-14T03:07:40.410Z,100454.78
2023-02-14T03:10:26.652Z,100447.13
2023-02-14T03:13:16.699Z,100448.69
2023-02-14T03:16:02.364Z,100449.44
2023-02-14T03:18:35.816Z,100439.94
2023-02-14T03:21:12.368Z,100449.34
2023-02-14T03:23:51.651Z,100451.00
2023-02-14T03:26:27.285Z,100439.84
2023-02-14T03:29:24.701Z,100446.66
2023-02-14T03:31:59.922Z,100446.66
2023-02-14T03:34:33.228Z,100439.84
2023-02-14T03:37:10.917Z,100429.59
2023-02-14T03:39:58.643Z,100424.41
2023-02-14T03:42:39.185Z,100425.53
2023-02-14T03:45:12.151Z,100423.75
2023-02-14T03:47:43.789Z,100428.84
2023-02-14T03:50:18.181Z,100433.09
2023-02-14T03:52:50.879Z,100428.00
2023-02-14T03:55:30.667Z,100426.25
2023-02-14T03:58:12.804Z,100423.66
2023-02-14T04:00:43.558Z,100423.38
2023-02-14T04:03:15.299Z,100416.84
2023-02-14T04:05:46.797Z,100420.91
2023-02-14T04:08:25.470Z,100413.06
2023-02-14T04:10:54.428Z,100403.63
2023-02-14T04:13:22.115Z,100406.13
2023-02-14T04:15:49.639Z,100415.63
2023-02-14T04:18:35.762Z,100407.16
2023-02-14T04:21:03.533Z,100415.63
2023-02-14T04:23:31.113Z,100409.75
2023-02-14T04:25:58.641Z,100399.19
2023-02-14T04:28:25.932Z,100404.28
2023-02-14T04:30:53.488Z,100405.94
2023-02-14T04:33:21.022Z,100410.28
2023-02-14T04:35:49.066Z,100407.81
2023-02-14T04:38:16.454Z,100407.88
2023-02-14T04:40:43.928Z,100414.63
2023-02-14T04:43:11.398Z,100400.78
2023-02-14T04:45:38.756Z,100401.50
2023-02-14T04:48:06.171Z,100399.75
2023-02-14T04:50:33.665Z,100404.84
2023-02-14T04:53:01.020Z,100411.78
2023-02-14T04:55:28.341Z,100407.34
2023-02-14T04:57:55.706Z,100404.53
2023-02-14T05:00:24.202Z,100408.06
2023-02-14T05:02:51.613Z,100408.06
2023-02-14T05:05:18.985Z,100406.41
2023-02-14T05:07:47.857Z,100405.41
2023-02-14T05:10:15.571Z,100413.16
2023-02-14T05:12:42.886Z,100409.81
2023-02-14T05:15:10.543Z,100407.97
2023-02-14T05:17:37.938Z,100409.72
2023-02-14T05:20:06.801Z,100408.06
2023-02-14T05:22:34.172Z,100408.97
2023-02-14T05:25:01.502Z,100408.06
2023-02-14T05:27:28.919Z,100410.56
2023-02-14T05:29:56.287Z,100402.59
2023-02-14T05:32:23.811Z,100408.59
2023-02-14T05:34:52.796Z,100411.94
2023-02-14T05:37:20.389Z,100407.50
2023-02-14T05:39:47.856Z,100413.50
2023-02-14T05:42:15.435Z,100413.50
2023-02-14T05:44:43.036Z,100422.91
2023-02-14T05:47:12.968Z,100420.25
2023-02-14T05:49:40.609Z,100421.09
2023-02-14T05:52:08.055Z,100411.66
2023-02-14T05:54:35.784Z,100414.16
2023-02-14T05:57:03.441Z,100415.81
2023-02-14T05:59:31.347Z,100418.28
2023-02-14T06:01:58.732Z,100411.38
2023-02-14T06:04:26.260Z,100411.19
2023-02-14T06:06:53.835Z,100410.25
2023-02-14T06:09:21.244Z,100403.16
2023-02-14T06:11:48.573Z,100402.22
2023-02-14T06:14:16.131Z,100410.53
2023-02-14T06:16:44.331Z,100399.25
2023-02-14T06:19:11.756Z,100400.81
2023-02-14T06:21:39.162Z,100402.28
2023-02-14T06:24:06.799Z,100400.41
2023-02-14T06:26:36.083Z,100411.53
2023-02-14T06:29:03.940Z,100411.41
2023-02-14T06:31:31.636Z,100416.50
2023-02-14T06:33:59.157Z,100423.84
2023-02-14T06:36:27.148Z,100415.91
2023-02-14T06:38:54.484Z,100425.78
2023-02-14T06:41:21.853Z,100418.94
2023-02-14T06:43:49.374Z,100412.75
2023-02-14T06:46:18.956Z,100422.72
2023-02-14T06:48:46.782Z,100417.34
2023-02-14T06:51:14.254Z,100408.44
2023-02-14T06:53:41.605Z,100407.34
2023-02-14T06:56:09.005Z,100402.78
2023-02-14T06:58:36.448Z,100411.41
2023-02-14T07:01:04.567Z,100406.84
2023-02-14T07:03:31.988Z,100417.53
2023-02-14T07:05:59.873Z,100410.59
2023-02-14T07:08:27.753Z,100392.19
2023-02-14T07:10:58.326Z,100404.81
2023-02-14T07:13:26.575Z,100404.50
2023-02-14T07:15:54.338Z,100404.03
2023-02-14T07:18:21.754Z,100403.63
2023-02-14T07:20:50.912Z,100407.03
2023-02-14T07:23:18.495Z,100402.56
2023-02-14T07:25:46.088Z,100406.63
2023-02-14T07:28:13.955Z,100420.97
2023-02-14T07:30:41.967Z,100416.50
2023-02-14T07:33:09.497Z,100413.09
2023-02-14T07:35:36.787Z,100412.09
2023-02-14T07:38:04.231Z,100420.69
2023-02-14T07:40:31.796Z,100413.22
2023-02-14T07:43:00.888Z,100415.91
2023-02-14T07:45:28.410Z,100416.34
2023-02-14T07:47:55.936Z,100406.59
2023-02-14T07:50:23.769Z,100405.56
2023-02-14T07:52:51.471Z,100410.94
2023-02-14T07:55:19.454Z,100399.94
2023-02-14T07:57:50.027Z,100408.47
2023-02-14T08:00:18.745Z,100406.28
2023-02-14T08:02:46.076Z,100407.75
2023-02-14T08:05:14.878Z,100401.81
2023-02-14T08:07:43.925Z,100404.75
2023-02-14T08:10:13.090Z,100409.94
2023-02-14T08:12:59.586Z,100407.34
2023-02-14T08:15:53.013Z,100414.47
2023-02-14T08:18:25.509Z,100415.72
2023-02-14T08:20:53.081Z,100430.97
2023-02-14T08:23:21.459Z,100424.03
2023-02-14T08:25:51.276Z,100419.44
2023-02-14T08:28:22.236Z,100426.28
2023-02-14T08:30:50.713Z,100428.88
2023-02-14T08:33:18.737Z,100428.56
2023-02-14T08:35:46.403Z,100433.63
2023-02-14T08:38:13.929Z,100432.25
2023-02-14T08:40:41.765Z,100431.03
2023-02-14T08:43:09.830Z,100432.66
2023-02-14T08:45:38.538Z,100433.50
2023-02-14T08:48:10.406Z,100438.75
2023-02-14T08:50:39.323Z,100433.50
2023-02-14T08:53:12.614Z,100426.75
2023-02-14T08:55:40.565Z,100434.00
2023-02-14T08:58:08.479Z,100443.88
2023-02-14T09:00:36.216Z,100436.59
2023-02-14T09:03:03.894Z,100433.16
2023-02-14T09:05:31.520Z,100435.97
2023-02-14T09:07:59.548Z,100430.13
2023-02-14T09:10:28.346Z,100428.78
2023-02-14T09:12:55.893Z,100431.59
2023-02-14T09:15:23.421Z,100434.94
2023-02-14T09:17:51.914Z,100440.31
2023-02-14T09:20:19.624Z,100428.03
2023-02-14T09:22:48.744Z,100434.22
2023-02-14T09:25:17.437Z,100430.63
2023-02-14T09:27:44.942Z,100445.09
2023-02-14T09:30:13.456Z,100441.91
2023-02-14T09:32:40.774Z,100445.72
2023-02-14T09:35:08.487Z,100438.03
2023-02-14T09:37:35.816Z,100447.19
2023-02-14T09:40:04.621Z,100449.03
2023-02-14T09:42:45.657Z,100449.34
2023-02-14T09:45:18.419Z,100455.28
2023-02-14T09:48:26.090Z,100452.25
2023-02-14T09:51:03.724Z,100454.00
2023-02-14T09:53:37.282Z,100444.81
2023-02-14T09:56:11.925Z,100446.81
2023-02-14T09:58:54.486Z,100440.22
2023-02-14T10:01:45.950Z,100445.63
2023-02-14T10:04:34.979Z,100439.34
2023-02-14T10:07:19.669Z,100437.53
2023-02-14T10:09:59.544Z,100436.38
2023-02-14T10:12:33.787Z,100436.47
2023-02-14T10:15:27.766Z,100434.00
2023-02-14T10:18:08.035Z,100442.78
2023-02-14T10:20:46.242Z,100444.97
2023-02-14T10:23:37.874Z,100441.84
2023-02-14T10:26:14.363Z,100431.97
2023-02-14T10:28:49.088Z,100431.03
2023-02-14T10:31:24.413Z,100425.59
2023-02-14T10:33:57.837Z,100419.41
2023-02-14T10:36:46.470Z,100421.03
2023-02-14T10:39:32.284Z,100417.34
2023-02-14T10:42:21.328Z,100408.22
2023-02-14T10:44:58.848Z,100401.78
2023-02-14T10:48:22.124Z,100402.53
2023-02-14T10:51:04.454Z,100412.28
2023-02-14T10:54:08.874Z,100396.91
2023-02-14T10:56:45.149Z,100392.06
2023-02-14T10:59:35.162Z,100394.19
2023-02-14T11:02:03.776Z,100388.31
2023-02-14T11:04:32.331Z,100391.16
2023-02-14T11:06:59.616Z,100388.38
2023-02-14T11:09:26.912Z,100375.47
2023-02-14T11:11:58.781Z,100381.72
2023-02-14T11:14:32.456Z,100375.78
2023-02-14T11:17:20.156Z,100382.53
2023-02-14T11:20:06.362Z,100382.66
2023-02-14T11:22:35.771Z,100372.38
2023-02-14T11:25:19.185Z,100368.59
2023-02-14T11:27:52.427Z,100377.91
2023-02-14T11:30:41.825Z,100378.06
2023-02-14T11:33:42.978Z,100378.19
2023-02-14T11:36:17.504Z,100371.19
2023-02-14T11:38:54.697Z,100374.16
2023-02-14T11:41:22.337Z,100359.13
2023-02-14T11:43:52.448Z,100360.69
2023-02-14T11:46:24.069Z,100367.22
2023-02-14T11:49:06.864Z,100364.75
2023-02-14T11:51:40.262Z,100364.63
2023-02-14T11:54:24.523Z,100359.44
2023-02-14T11:57:01.976Z,100354.91
2023-02-14T11:59:42.143Z,100348.81
2023-02-14T12:02:24.441Z,100339.09
2023-02-14T12:05:04.326Z,100333.75
2023-02-14T12:07:38.522Z,100340.13
2023-02-14T12:10:17.554Z,100339.31
2023-02-14T12:13:02.930Z,100340.00
2023-02-14T12:15:43.104Z,100326.97
2023-02-14T12:18:47.284Z,100334.97
2023-02-14T12:21:46.875Z,100330.47
2023-02-14T12:24:30.393Z,100329.84
2023-02-14T12:27:03.057Z,100330.84
2023-02-14T12:29:54.397Z,100326.41
2023-02-14T12:32:29.416Z,100324.34
2023-02-14T12:35:17.336Z,100322.97
2023-02-14T12:38:19.757Z,100332.16
2023-02-14T12:41:02.153Z,100319.78
2023-02-14T12:43:45.493Z,100324.84
2023-02-14T12:46:49.070Z,100316.91
2023-02-14T12:50:01.416Z,100315.88
2023-02-14T12:52:48.628Z,100326.41
2023-02-14T12:55:42.159Z,100319.47
2023-02-14T12:58:26.704Z,100326.44
2023-02-14T13:01:32.870Z,100328.78
2023-02-14T13:04:09.948Z,100326.03
2023-02-14T13:06:45.565Z,100320.13
2023-02-14T13:09:41.053Z,100324.00
2023-02-14T13:12:26.529Z,100320.66
2023-02-14T13:15:19.102Z,100323.16
2023-02-14T13:17:46.486Z,100315.63
2023-02-14T13:20:47.396Z,100314.16
2023-02-14T13:23:27.415Z,100317.09
2023-02-14T13:26:02.587Z,100318.13
2023-02-14T13:28:31.674Z,100320.19
2023-02-14T13:31:01.765Z,100316.63
2023-02-14T13:33:38.032Z,100317.75
2023-02-14T13:36:12.706Z,100316.00
2023-02-14T13:38:52.634Z,100319.59
2023-02-14T13:41:22.998Z,100318.78
2023-02-14T13:44:02.842Z,100317.34
2023-02-14T13:46:30.513Z,100317.00
2023-02-14T13:49:24.134Z,100318.44
2023-02-14T13:51:55.935Z,100318.66
2023-02-14T13:54:36.237Z,100317.63
2023-02-14T13:57:36.532Z,100314.06
2023-02-14T14:00:19.243Z,100315.06
2023-02-14T14:02:56.883Z,100317.31
2023-02-14T14:05:29.998Z,100310.03
2023-02-14T14:08:22.629Z,100317.63
2023-02-14T14:10:59.640Z,100316.50
2023-02-14T14:13:46.015Z,100311.66
2023-02-14T14:16:23.415Z,100307.06
2023-02-14T14:18:55.469Z,100301.25
2023-02-14T14:21:34.240Z,100309.16
2023-02-14T14:24:25.420Z,100305.91
2023-02-14T14:27:06.662Z,100308.25
2023-02-14T14:29:55.600Z,100310.63
2023-02-14T14:32:37.707Z,100313.44
2023-02-14T14:35:25.352Z,100317.38
2023-02-14T14:37:59.760Z,100307.94
2023-02-14T14:40:32.705Z,100306.16
2023-02-14T14:43:09.658Z,100307.47
2023-02-14T14:45:37.476Z,100309.19
2023-02-14T14:48:13.785Z,100309.59
2023-02-14T14:50:46.135Z,100311.16
2023-02-14T14:53:47.153Z,100310.28
2023-02-14T14:56:22.785Z,100307.56
2023-02-14T14:58:50.564Z,100299.72
2023-02-14T15:01:33.294Z,100311.03
2023-02-14T15:04:20.062Z,100308.19
2023-02-14T15:06:48.814Z,100313.13
2023-02-14T15:09:24.043Z,100313.81
2023-02-14T15:12:12.308Z,100316.03
2023-02-14T15:14:46.254Z,100311.47
2023-02-14T15:17:31.920Z,100308.28
2023-02-14T15:20:07.041Z,100307.34
2023-02-14T15:22:40.852Z,100314.09
2023-02-14T15:25:16.758Z,100314.09
2023-02-14T15:27:44.868Z,100315.53
2023-02-14T15:30:37.720Z,100328.19
2023-02-14T15:33:07.662Z,100320.63
2023-02-14T15:35:42.279Z,100322.59
2023-02-14T15:38:13.495Z,100330.38
2023-02-14T15:40:43.978Z,100324.97
2023-02-14T15:43:32.494Z,100331.41
2023-02-14T15:46:35.213Z,100322.09
2023-02-14T15:49:10.168Z,100327.38
2023-02-14T15:51:38.997Z,100336.72
2023-02-14T15:54:25.431Z,100342.13
2023-02-14T15:56:54.476Z,100349.06
2023-02-14T15:59:30.977Z,100334.66
2023-02-14T16:02:38.888Z,100342.72
2023-02-14T16:05:18.096Z,100347.91
2023-02-14T16:08:24.663Z,100353.34
2023-02-14T16:11:35.492Z,100360.31
2023-02-14T16:14:35.422Z,100359.59
2023-02-14T16:17:12.102Z,100365.69
2023-02-14T16:19:45.763Z,100361.75
2023-02-14T16:22:32.049Z,100370.44
2023-02-14T16:24:59.796Z,100375.00
2023-02-14T16:27:27.556Z,100379.44
2023-02-14T16:29:55.094Z,100379.34
2023-02-14T16:32:24.537Z,100373.31
2023-02-14T16:34:52.130Z,100378.72
2023-02-14T16:37:24.556Z,100374.38
2023-02-14T16:39:56.570Z,100366.50
2023-02-14T16:42:24.581Z,100377.69
2023-02-14T16:44:52.165Z,100380.25
2023-02-14T16:47:21.378Z,100378.50
2023-02-14T16:49:50.672Z,100381.00
2023-02-14T16:52:25.736Z,100382.66
2023-02-14T16:54:53.679Z,100383.38
2023-02-14T16:57:29.157Z,100384.97
2023-02-14T16:59:57.076Z,100388.56
2023-02-14T17:02:28.415Z,100387.03
2023-02-14T17:04:56.353Z,100386.72
2023-02-14T17:07:23.899Z,100382.47
2023-02-14T17:09:58.008Z,100393.03
2023-02-14T17:12:31.143Z,100392.91
2023-02-14T17:15:06.225Z,100390.16
2023-02-14T17:17:36.251Z,100398.03
2023-02-14T17:20:08.329Z,100399.75
2023-02-14T17:22:37.595Z,100404.03
2023-02-14T17:25:06.251Z,100396.44
2023-02-14T17:27:33.553Z,100395.72
2023-02-14T17:30:01.194Z,100403.28
2023-02-14T17:32:28.936Z,100397.16
2023-02-14T17:34:57.075Z,100394.56
2023-02-14T17:37:24.629Z,100398.84
2023-02-14T17:39:53.126Z,100401.53
2023-02-14T17:42:20.745Z,100397.50
2023-02-14T17:44:48.213Z,100400.28
2023-02-14T17:47:18.092Z,100390.94
2023-02-14T17:49:47.435Z,100390.72
2023-02-14T17:52:16.026Z,100396.97
2023-02-14T17:54:43.769Z,100391.56
2023-02-14T17:57:12.699Z,100392.59
2023-02-14T17:59:40.171Z,100395.19
2023-02-14T18:02:07.626Z,100396.31
2023-02-14T18:04:37.212Z,100406.78
2023-02-14T18:07:05.836Z,100400.84
2023-02-14T18:09:33.132Z,100405.31
2023-02-14T18:12:00.448Z,100396.00
2023-02-14T18:14:27.905Z,100406.72
2023-02-14T18:16:55.325Z,100405.00
2023-02-14T18:19:22.790Z,100409.31
2023-02-14T18:21:50.101Z,100408.59
2023-02-14T18:24:17.559Z,100402.69
2023-02-14T18:26:44.952Z,100411.47
2023-02-14T18:29:13.267Z,100398.63
2023-02-14T18:31:43.441Z,100407.44
2023-02-14T18:34:11.590Z,100416.44
2023-02-14T18:36:41.898Z,100419.38
2023-02-14T18:39:10.601Z,100414.97
2023-02-14T18:41:38.269Z,100410.50
2023-02-14T18:44:06.889Z,100408.13
2023-02-14T18:46:35.679Z,100417.44
2023-02-14T18:49:07.110Z,100414.03
2023-02-14T18:51:39.137Z,100414.84
2023-02-14T18:54:07.678Z,100417.72
2023-02-14T18:56:38.212Z,100416.78
2023-02-14T18:59:09.856Z,100425.50
2023-02-14T19:01:44.891Z,100422.28
2023-02-14T19:04:13.460Z,100412.94
2023-02-14T19:06:42.418Z,100417.28
2023-02-14T19:09:17.112Z,100410.25
2023-02-14T19:11:45.290Z,100404.25
2023-02-14T19:14:13.412Z,100410.34
2023-02-14T19:16:50.373Z,100420.81
2023-02-14T19:19:20.323Z,100412.28
2023-02-14T19:21:47.577Z,100412.59
2023-02-14T19:24:16.919Z,100424.63
2023-02-14T19:26:44.682Z,100425.72
2023-02-14T19:29:16.773Z,100416.41
2023-02-14T19:31:51.423Z,100418.34
2023-02-14T19:34:28.016Z,100415.88
2023-02-14T19:37:00.530Z,100413.66
2023-02-14T19:39:31.913Z,100410.59
2023-02-14T19:42:00.364Z,100415.97
2023-02-14T19:44:29.267Z,100418.19
2023-02-14T19:46:59.982Z,100411.56
2023-02-14T19:49:29.240Z,100403.72
2023-02-14T19:51:57.487Z,100411.38
2023-02-14T19:54:25.664Z,100416.53
2023-02-14T19:56:56.196Z,100418.41
2023-02-14T19:59:23.807Z,100418.69
2023-02-14T20:01:53.944Z,100410.91
2023-02-14T20:04:27.744Z,100405.03
2023-02-14T20:06:56.645Z,100411.03
2023-02-14T20:09:25.531Z,100418.03
2023-02-14T20:11:56.309Z,100418.94
2023-02-14T20:14:49.895Z,100419.88
2023-02-14T20:17:18.749Z,100418.22
2023-02-14T20:19:46.588Z,100415.75
2023-02-14T20:22:14.001Z,100419.16
2023-02-14T20:24:41.374Z,100413.88
2023-02-14T20:27:08.794Z,100418.41
2023-02-14T20:29:38.881Z,100421.81
2023-02-14T20:32:06.454Z,100416.75
2023-02-14T20:34:33.969Z,100417.66
2023-02-14T20:37:01.636Z,100415.91
2023-02-14T20:39:34.797Z,100414.25
2023-02-14T20:42:02.740Z,100421.91
2023-02-14T20:44:31.076Z,100416.63
2023-02-14T20:46:58.722Z,100426.09
2023-02-14T20:49:28.432Z,100420.06
2023-02-14T20:51:56.137Z,100426.91
2023-02-14T20:54:26.563Z,100417.47
2023-02-14T20:56:54.943Z,100413.16
2023-02-14T20:59:28.996Z,100414.88
2023-02-14T21:01:59.303Z,100411.47
2023-02-14T21:04:27.842Z,100418.41
2023-02-14T21:06:57.588Z,100414.16
2023-02-14T21:09:25.009Z,100413.22
2023-02-14T21:11:53.939Z,100414.88
2023-02-14T21:14:21.798Z,100418.22
2023-02-14T21:16:49.293Z,100411.41
2023-02-14T21:44:59.241Z,100406.31
2023-02-14T21:47:26.792Z,100402.59
2023-02-14T21:50:12.780Z,100406.88
2023-02-14T21:52:40.147Z,100401.41
2023-02-14T21:55:08.499Z,100399.69
2023-02-14T21:57:36.028Z,100403.81
2023-02-14T22:00:05.549Z,100405.38
2023-02-14T22:02:39.752Z,100402.72
2023-02-14T22:05:08.025Z,100406.03
2023-02-14T22:07:35.640Z,100404.38
2023-02-14T22:10:03.521Z,100406.25
2023-02-14T22:12:31.192Z,100404.66
2023-02-14T22:15:01.374Z,100408.06
2023-02-14T22:17:28.745Z,100403.81
2023-02-14T22:19:56.103Z,100405.84
2023-02-14T22:22:23.738Z,100406.94
2023-02-14T22:24:51.153Z,100401.41
2023-02-14T22:27:18.501Z,100409.34
2023-02-14T22:29:46.066Z,100405.94
2023-02-14T22:32:13.529Z,100410.25
2023-02-14T22:34:40.889Z,100417.28
2023-02-14T22:37:08.316Z,100413.88
2023-02-14T22:39:35.651Z,100411.56
2023-02-14T22:42:06.743Z,100405.72
2023-02-14T22:44:34.088Z,100402.56
2023-02-14T22:47:01.477Z,100407.94
2023-02-14T22:49:28.913Z,100408.00
2023-02-14T22:51:56.306Z,100412.34
2023-02-14T22:54:23.811Z,100407.13
2023-02-14T22:56:51.504Z,100401.84
2023-02-14T22:59:25.394Z,100410.25
2023-02-14T23:01:54.644Z,100415.22
2023-02-14T23:04:24.912Z,100408.88
2023-02-14T23:06:53.775Z,100415.44
2023-02-14T23:09:23.612Z,100408.41
2023-02-14T23:11:51.148Z,100406.69
2023-02-14T23:14:38.357Z,100409.16
2023-02-14T23:17:18.940Z,100412.59
2023-02-14T23:20:05.458Z,100408.25
2023-02-14T23:22:39.496Z,100413.31
2023-02-14T23:25:10.684Z,100407.97
2023-02-14T23:27:45.051Z,100406.94
2023-02-14T23:30:18.740Z,100405.13
2023-02-14T23:32:46.631Z,100405.84
2023-02-14T23:35:14.450Z,100406.56
2023-02-14T23:37:41.969Z,100399.84
2023-02-14T23:40:10.210Z,100404.75
2023-02-14T23:42:37.645Z,100403.94
2023-02-14T23:45:24.065Z,100401.25
2023-02-14T23:47:51.532Z,100402.72
2023-02-14T23:50:18.984Z,100402.63
2023-02-14T23:52:46.326Z,100403.34
2023-02-14T23:55:13.711Z,100402.53
2023-02-14T23:57:41.153Z,100401.59
